sensor_id;sensor_type;location;lat;lon;timestamp;P1;durP1;ratioP1;P2;durP2;ratioP2
84608;SDS011;74839;51.214;22.574;2024-03-23T00:55:48;42.97;;;27.48;;
84608;SDS011;74839;51.214;22.574;2024-03-23T00:58:14;45.13;;;28.23;;
84608;SDS011;74839;51.214;22.574;2024-03-23T01:00:40;40.28;;;26.58;;
84608;SDS011;74839;51.214;22.574;2024-03-23T01:03:06;43.40;;;27.63;;
84608;SDS011;74839;51.214;22.574;2024-03-23T01:05:34;45.30;;;29.50;;
84608;SDS011;74839;51.214;22.574;2024-03-23T01:08:01;41.60;;;27.63;;
84608;SDS011;74839;51.214;22.574;2024-03-23T01:10:27;48.80;;;27.15;;
84608;SDS011;74839;51.214;22.574;2024-03-23T01:12:54;47.23;;;29.37;;
84608;SDS011;74839;51.214;22.574;2024-03-23T01:15:20;48.70;;;30.47;;
84608;SDS011;74839;51.214;22.574;2024-03-23T01:17:46;45.97;;;29.00;;
84608;SDS011;74839;51.214;22.574;2024-03-23T01:20:13;50.03;;;29.88;;
84608;SDS011;74839;51.214;22.574;2024-03-23T01:22:40;45.28;;;28.60;;
84608;SDS011;74839;51.214;22.574;2024-03-23T01:25:06;50.42;;;30.27;;
84608;SDS011;74839;51.214;22.574;2024-03-23T01:27:34;46.58;;;28.15;;
84608;SDS011;74839;51.214;22.574;2024-03-23T01:30:00;52.90;;;30.33;;
84608;SDS011;74839;51.214;22.574;2024-03-23T01:32:26;51.20;;;31.08;;
84608;SDS011;74839;51.214;22.574;2024-03-23T01:34:52;45.93;;;29.03;;
84608;SDS011;74839;51.214;22.574;2024-03-23T01:37:18;48.73;;;29.63;;
84608;SDS011;74839;51.214;22.574;2024-03-23T01:39:44;47.80;;;29.17;;
84608;SDS011;74839;51.214;22.574;2024-03-23T01:42:11;43.90;;;28.13;;
84608;SDS011;74839;51.214;22.574;2024-03-23T01:44:37;47.63;;;27.95;;
84608;SDS011;74839;51.214;22.574;2024-03-23T01:47:03;45.07;;;28.27;;
84608;SDS011;74839;51.214;22.574;2024-03-23T01:49:29;48.97;;;30.15;;
84608;SDS011;74839;51.214;22.574;2024-03-23T01:51:56;47.50;;;27.65;;
84608;SDS011;74839;51.214;22.574;2024-03-23T01:54:22;42.60;;;26.98;;
84608;SDS011;74839;51.214;22.574;2024-03-23T01:56:51;47.43;;;29.20;;
84608;SDS011;74839;51.214;22.574;2024-03-23T01:59:17;45.10;;;28.45;;
84608;SDS011;74839;51.214;22.574;2024-03-23T02:01:43;43.97;;;27.87;;
84608;SDS011;74839;51.214;22.574;2024-03-23T02:04:09;46.93;;;30.23;;
84608;SDS011;74839;51.214;22.574;2024-03-23T02:06:35;48.22;;;28.35;;
84608;SDS011;74839;51.214;22.574;2024-03-23T02:09:01;46.88;;;29.52;;
84608;SDS011;74839;51.214;22.574;2024-03-23T02:11:27;46.88;;;29.20;;
84608;SDS011;74839;51.214;22.574;2024-03-23T02:13:53;48.53;;;28.13;;
84608;SDS011;74839;51.214;22.574;2024-03-23T02:16:19;45.60;;;29.77;;
84608;SDS011;74839;51.214;22.574;2024-03-23T02:18:52;45.63;;;29.15;;
84608;SDS011;74839;51.214;22.574;2024-03-23T02:21:22;45.20;;;28.77;;
84608;SDS011;74839;51.214;22.574;2024-03-23T02:23:48;49.22;;;28.80;;
84608;SDS011;74839;51.214;22.574;2024-03-23T02:26:14;49.43;;;29.03;;
84608;SDS011;74839;51.214;22.574;2024-03-23T02:28:42;49.23;;;28.70;;
84608;SDS011;74839;51.214;22.574;2024-03-23T02:31:08;46.92;;;27.95;;
84608;SDS011;74839;51.214;22.574;2024-03-23T02:33:34;51.15;;;30.38;;
84608;SDS011;74839;51.214;22.574;2024-03-23T02:36:03;52.20;;;29.50;;
84608;SDS011;74839;51.214;22.574;2024-03-23T02:38:29;45.33;;;30.17;;
84608;SDS011;74839;51.214;22.574;2024-03-23T02:41:00;44.78;;;27.88;;
84608;SDS011;74839;51.214;22.574;2024-03-23T02:43:27;51.53;;;29.38;;
84608;SDS011;74839;51.214;22.574;2024-03-23T02:45:53;53.25;;;30.63;;
84608;SDS011;74839;51.214;22.574;2024-03-23T02:48:19;46.70;;;28.20;;
84608;SDS011;74839;51.214;22.574;2024-03-23T02:50:45;42.27;;;27.20;;
84608;SDS011;74839;51.214;22.574;2024-03-23T02:53:11;48.60;;;29.25;;
84608;SDS011;74839;51.214;22.574;2024-03-23T02:55:37;48.17;;;29.67;;
84608;SDS011;74839;51.214;22.574;2024-03-23T02:58:03;54.20;;;30.60;;
84608;SDS011;74839;51.214;22.574;2024-03-23T03:00:29;47.73;;;29.43;;
84608;SDS011;74839;51.214;22.574;2024-03-23T03:02:55;52.37;;;30.77;;
84608;SDS011;74839;51.214;22.574;2024-03-23T03:05:21;56.17;;;31.47;;
84608;SDS011;74839;51.214;22.574;2024-03-23T03:07:47;49.33;;;30.80;;
84608;SDS011;74839;51.214;22.574;2024-03-23T03:10:13;51.87;;;32.17;;
84608;SDS011;74839;51.214;22.574;2024-03-23T03:12:39;54.70;;;32.20;;
84608;SDS011;74839;51.214;22.574;2024-03-23T03:15:06;50.83;;;30.80;;
84608;SDS011;74839;51.214;22.574;2024-03-23T03:17:33;51.83;;;30.53;;
84608;SDS011;74839;51.214;22.574;2024-03-23T03:19:59;55.57;;;33.07;;
84608;SDS011;74839;51.214;22.574;2024-03-23T03:22:25;53.83;;;32.83;;
84608;SDS011;74839;51.214;22.574;2024-03-23T03:24:51;54.20;;;32.93;;
84608;SDS011;74839;51.214;22.574;2024-03-23T03:27:17;60.13;;;33.77;;
84608;SDS011;74839;51.214;22.574;2024-03-23T03:29:43;58.07;;;33.10;;
84608;SDS011;74839;51.214;22.574;2024-03-23T03:32:09;56.20;;;33.80;;
84608;SDS011;74839;51.214;22.574;2024-03-23T03:34:35;59.80;;;36.20;;
84608;SDS011;74839;51.214;22.574;2024-03-23T03:37:01;60.93;;;35.83;;
84608;SDS011;74839;51.214;22.574;2024-03-23T03:39:27;61.17;;;34.37;;
84608;SDS011;74839;51.214;22.574;2024-03-23T03:41:53;61.17;;;35.80;;
84608;SDS011;74839;51.214;22.574;2024-03-23T03:44:19;60.10;;;35.03;;
84608;SDS011;74839;51.214;22.574;2024-03-23T03:46:45;61.07;;;35.80;;
84608;SDS011;74839;51.214;22.574;2024-03-23T03:49:11;62.00;;;35.50;;
84608;SDS011;74839;51.214;22.574;2024-03-23T03:51:37;60.40;;;35.80;;
84608;SDS011;74839;51.214;22.574;2024-03-23T03:54:03;62.20;;;36.80;;
84608;SDS011;74839;51.214;22.574;2024-03-23T03:56:29;67.30;;;41.95;;
84608;SDS011;74839;51.214;22.574;2024-03-23T03:58:55;63.93;;;38.30;;
84608;SDS011;74839;51.214;22.574;2024-03-23T04:01:21;68.57;;;37.57;;
84608;SDS011;74839;51.214;22.574;2024-03-23T04:03:47;59.13;;;36.77;;
84608;SDS011;74839;51.214;22.574;2024-03-23T04:06:22;59.73;;;36.00;;
84608;SDS011;74839;51.214;22.574;2024-03-23T04:08:48;56.97;;;35.30;;
84608;SDS011;74839;51.214;22.574;2024-03-23T04:11:14;64.73;;;36.50;;
84608;SDS011;74839;51.214;22.574;2024-03-23T04:13:40;64.43;;;36.23;;
84608;SDS011;74839;51.214;22.574;2024-03-23T04:16:06;58.47;;;35.60;;
84608;SDS011;74839;51.214;22.574;2024-03-23T04:18:33;59.93;;;36.20;;
84608;SDS011;74839;51.214;22.574;2024-03-23T04:21:00;62.60;;;36.37;;
84608;SDS011;74839;51.214;22.574;2024-03-23T04:23:26;63.60;;;34.97;;
84608;SDS011;74839;51.214;22.574;2024-03-23T04:25:52;58.37;;;33.73;;
84608;SDS011;74839;51.214;22.574;2024-03-23T04:28:18;60.83;;;36.33;;
84608;SDS011;74839;51.214;22.574;2024-03-23T04:30:44;65.63;;;36.37;;
84608;SDS011;74839;51.214;22.574;2024-03-23T04:33:10;63.17;;;37.70;;
84608;SDS011;74839;51.214;22.574;2024-03-23T04:35:36;63.13;;;36.40;;
84608;SDS011;74839;51.214;22.574;2024-03-23T04:38:02;61.80;;;36.20;;
84608;SDS011;74839;51.214;22.574;2024-03-23T04:40:28;60.77;;;34.83;;
84608;SDS011;74839;51.214;22.574;2024-03-23T04:42:54;59.53;;;34.47;;
84608;SDS011;74839;51.214;22.574;2024-03-23T04:45:20;56.77;;;34.20;;
84608;SDS011;74839;51.214;22.574;2024-03-23T04:47:46;67.50;;;37.90;;
84608;SDS011;74839;51.214;22.574;2024-03-23T04:50:12;62.43;;;35.90;;
84608;SDS011;74839;51.214;22.574;2024-03-23T04:52:39;60.50;;;36.70;;
84608;SDS011;74839;51.214;22.574;2024-03-23T04:55:05;61.73;;;35.50;;
84608;SDS011;74839;51.214;22.574;2024-03-23T04:57:31;62.30;;;34.80;;
84608;SDS011;74839;51.214;22.574;2024-03-23T04:59:57;55.77;;;32.93;;
84608;SDS011;74839;51.214;22.574;2024-03-23T05:02:23;62.40;;;36.13;;
84608;SDS011;74839;51.214;22.574;2024-03-23T05:04:50;59.53;;;34.80;;
84608;SDS011;74839;51.214;22.574;2024-03-23T05:07:16;65.57;;;35.60;;
84608;SDS011;74839;51.214;22.574;2024-03-23T05:09:42;57.33;;;34.40;;
84608;SDS011;74839;51.214;22.574;2024-03-23T05:12:08;57.90;;;36.50;;
84608;SDS011;74839;51.214;22.574;2024-03-23T05:14:34;61.33;;;36.10;;
84608;SDS011;74839;51.214;22.574;2024-03-23T05:17:00;61.73;;;35.80;;
84608;SDS011;74839;51.214;22.574;2024-03-23T05:19:27;59.80;;;35.93;;
84608;SDS011;74839;51.214;22.574;2024-03-23T05:21:53;58.93;;;35.30;;
84608;SDS011;74839;51.214;22.574;2024-03-23T05:24:19;60.13;;;35.37;;
84608;SDS011;74839;51.214;22.574;2024-03-23T05:26:45;58.10;;;35.33;;
84608;SDS011;74839;51.214;22.574;2024-03-23T05:29:11;56.73;;;34.27;;
84608;SDS011;74839;51.214;22.574;2024-03-23T05:31:38;58.20;;;35.27;;
84608;SDS011;74839;51.214;22.574;2024-03-23T05:34:06;58.90;;;34.83;;
84608;SDS011;74839;51.214;22.574;2024-03-23T05:36:32;61.37;;;34.40;;
84608;SDS011;74839;51.214;22.574;2024-03-23T05:38:58;56.60;;;33.93;;
84608;SDS011;74839;51.214;22.574;2024-03-23T05:41:24;61.70;;;39.45;;
84608;SDS011;74839;51.214;22.574;2024-03-23T05:43:50;58.00;;;35.67;;
84608;SDS011;74839;51.214;22.574;2024-03-23T05:46:16;56.03;;;34.13;;
84608;SDS011;74839;51.214;22.574;2024-03-23T05:48:43;53.20;;;32.95;;
84608;SDS011;74839;51.214;22.574;2024-03-23T05:51:09;58.23;;;34.23;;
84608;SDS011;74839;51.214;22.574;2024-03-23T05:53:36;52.77;;;33.33;;
84608;SDS011;74839;51.214;22.574;2024-03-23T05:56:02;54.30;;;33.25;;
84608;SDS011;74839;51.214;22.574;2024-03-23T05:58:29;60.13;;;34.95;;
84608;SDS011;74839;51.214;22.574;2024-03-23T06:00:59;55.60;;;33.77;;
84608;SDS011;74839;51.214;22.574;2024-03-23T06:03:26;59.80;;;34.60;;
84608;SDS011;74839;51.214;22.574;2024-03-23T06:05:52;52.90;;;33.17;;
84608;SDS011;74839;51.214;22.574;2024-03-23T06:08:18;55.90;;;32.63;;
84608;SDS011;74839;51.214;22.574;2024-03-23T06:10:45;57.30;;;32.57;;
84608;SDS011;74839;51.214;22.574;2024-03-23T06:13:11;52.42;;;31.20;;
84608;SDS011;74839;51.214;22.574;2024-03-23T06:15:37;54.07;;;31.43;;
84608;SDS011;74839;51.214;22.574;2024-03-23T06:18:04;54.13;;;32.03;;
84608;SDS011;74839;51.214;22.574;2024-03-23T06:20:30;50.73;;;30.90;;
84608;SDS011;74839;51.214;22.574;2024-03-23T06:22:57;56.83;;;32.80;;
84608;SDS011;74839;51.214;22.574;2024-03-23T06:25:23;53.97;;;32.77;;
84608;SDS011;74839;51.214;22.574;2024-03-23T06:27:49;52.60;;;30.57;;
84608;SDS011;74839;51.214;22.574;2024-03-23T06:30:15;51.63;;;31.33;;
84608;SDS011;74839;51.214;22.574;2024-03-23T06:32:41;55.97;;;32.20;;
84608;SDS011;74839;51.214;22.574;2024-03-23T06:35:07;54.27;;;30.60;;
84608;SDS011;74839;51.214;22.574;2024-03-23T06:37:35;49.93;;;30.43;;
84608;SDS011;74839;51.214;22.574;2024-03-23T06:40:06;51.20;;;31.00;;
84608;SDS011;74839;51.214;22.574;2024-03-23T06:42:34;47.07;;;29.33;;
84608;SDS011;74839;51.214;22.574;2024-03-23T06:45:01;50.30;;;30.13;;
84608;SDS011;74839;51.214;22.574;2024-03-23T06:47:27;52.47;;;29.70;;
84608;SDS011;74839;51.214;22.574;2024-03-23T06:49:53;46.90;;;29.00;;
84608;SDS011;74839;51.214;22.574;2024-03-23T06:52:19;53.50;;;30.52;;
84608;SDS011;74839;51.214;22.574;2024-03-23T06:54:48;44.67;;;26.50;;
84608;SDS011;74839;51.214;22.574;2024-03-23T06:57:14;40.83;;;24.85;;
84608;SDS011;74839;51.214;22.574;2024-03-23T06:59:40;43.17;;;25.03;;
84608;SDS011;74839;51.214;22.574;2024-03-23T07:02:06;46.88;;;26.25;;
84608;SDS011;74839;51.214;22.574;2024-03-23T07:04:36;40.28;;;23.42;;
84608;SDS011;74839;51.214;22.574;2024-03-23T07:07:02;37.43;;;23.73;;
84608;SDS011;74839;51.214;22.574;2024-03-23T07:09:28;37.90;;;22.77;;
84608;SDS011;74839;51.214;22.574;2024-03-23T07:11:55;42.60;;;23.30;;
84608;SDS011;74839;51.214;22.574;2024-03-23T07:14:21;40.07;;;24.00;;
84608;SDS011;74839;51.214;22.574;2024-03-23T07:16:48;39.13;;;22.93;;
84608;SDS011;74839;51.214;22.574;2024-03-23T07:19:15;40.60;;;23.47;;
84608;SDS011;74839;51.214;22.574;2024-03-23T07:21:42;34.88;;;22.65;;
84608;SDS011;74839;51.214;22.574;2024-03-23T07:24:08;35.20;;;22.25;;
84608;SDS011;74839;51.214;22.574;2024-03-23T07:26:34;34.65;;;20.80;;
84608;SDS011;74839;51.214;22.574;2024-03-23T07:29:00;36.25;;;22.33;;
84608;SDS011;74839;51.214;22.574;2024-03-23T07:31:27;34.00;;;21.55;;
84608;SDS011;74839;51.214;22.574;2024-03-23T07:33:53;42.20;;;23.30;;
84608;SDS011;74839;51.214;22.574;2024-03-23T07:36:19;35.00;;;20.40;;
84608;SDS011;74839;51.214;22.574;2024-03-23T07:38:45;33.23;;;20.37;;
84608;SDS011;74839;51.214;22.574;2024-03-23T07:41:18;33.93;;;19.90;;
84608;SDS011;74839;51.214;22.574;2024-03-23T07:43:44;36.60;;;21.33;;
84608;SDS011;74839;51.214;22.574;2024-03-23T07:46:14;39.55;;;23.90;;
84608;SDS011;74839;51.214;22.574;2024-03-23T07:48:40;32.20;;;20.13;;
84608;SDS011;74839;51.214;22.574;2024-03-23T07:51:11;36.53;;;18.67;;
84608;SDS011;74839;51.214;22.574;2024-03-23T07:53:37;32.03;;;19.80;;
84608;SDS011;74839;51.214;22.574;2024-03-23T07:58:29;31.73;;;20.08;;
84608;SDS011;74839;51.214;22.574;2024-03-23T08:00:56;32.03;;;20.35;;
84608;SDS011;74839;51.214;22.574;2024-03-23T08:03:22;37.42;;;20.58;;
84608;SDS011;74839;51.214;22.574;2024-03-23T08:05:48;37.83;;;20.70;;
84608;SDS011;74839;51.214;22.574;2024-03-23T08:08:14;33.90;;;19.50;;
84608;SDS011;74839;51.214;22.574;2024-03-23T08:10:47;45.72;;;26.05;;
84608;SDS011;74839;51.214;22.574;2024-03-23T08:13:13;34.73;;;19.40;;
84608;SDS011;74839;51.214;22.574;2024-03-23T08:15:39;30.17;;;19.08;;
84608;SDS011;74839;51.214;22.574;2024-03-23T08:18:05;36.70;;;21.00;;
84608;SDS011;74839;51.214;22.574;2024-03-23T08:20:31;33.05;;;19.15;;
84608;SDS011;74839;51.214;22.574;2024-03-23T08:22:57;30.20;;;19.92;;
84608;SDS011;74839;51.214;22.574;2024-03-23T08:25:23;40.97;;;22.13;;
84608;SDS011;74839;51.214;22.574;2024-03-23T08:27:49;34.72;;;20.60;;
84608;SDS011;74839;51.214;22.574;2024-03-23T08:30:19;34.57;;;20.37;;
84608;SDS011;74839;51.214;22.574;2024-03-23T08:32:45;37.33;;;22.13;;
84608;SDS011;74839;51.214;22.574;2024-03-23T08:35:11;35.72;;;21.38;;
84608;SDS011;74839;51.214;22.574;2024-03-23T08:37:37;32.58;;;21.10;;
84608;SDS011;74839;51.214;22.574;2024-03-23T08:40:03;45.83;;;24.92;;
84608;SDS011;74839;51.214;22.574;2024-03-23T08:42:29;41.83;;;23.80;;
84608;SDS011;74839;51.214;22.574;2024-03-23T08:44:55;36.28;;;20.30;;
84608;SDS011;74839;51.214;22.574;2024-03-23T08:47:21;30.55;;;18.80;;
84608;SDS011;74839;51.214;22.574;2024-03-23T08:49:49;29.85;;;20.08;;
84608;SDS011;74839;51.214;22.574;2024-03-23T08:52:15;35.38;;;21.60;;
84608;SDS011;74839;51.214;22.574;2024-03-23T08:54:41;30.55;;;19.50;;
84608;SDS011;74839;51.214;22.574;2024-03-23T08:57:08;37.60;;;19.77;;
84608;SDS011;74839;51.214;22.574;2024-03-23T08:59:34;30.15;;;19.05;;
84608;SDS011;74839;51.214;22.574;2024-03-23T09:02:00;29.48;;;18.42;;
84608;SDS011;74839;51.214;22.574;2024-03-23T09:04:26;27.20;;;17.45;;
84608;SDS011;74839;51.214;22.574;2024-03-23T09:06:53;29.95;;;18.48;;
84608;SDS011;74839;51.214;22.574;2024-03-23T09:09:19;29.60;;;18.67;;
84608;SDS011;74839;51.214;22.574;2024-03-23T09:11:45;30.70;;;18.48;;
84608;SDS011;74839;51.214;22.574;2024-03-23T09:14:11;30.13;;;18.67;;
84608;SDS011;74839;51.214;22.574;2024-03-23T09:16:37;28.85;;;18.13;;
84608;SDS011;74839;51.214;22.574;2024-03-23T09:19:03;28.55;;;16.90;;
84608;SDS011;74839;51.214;22.574;2024-03-23T09:21:29;32.67;;;18.13;;
84608;SDS011;74839;51.214;22.574;2024-03-23T09:23:55;29.92;;;17.92;;
84608;SDS011;74839;51.214;22.574;2024-03-23T09:26:21;30.83;;;18.15;;
84608;SDS011;74839;51.214;22.574;2024-03-23T09:28:50;31.67;;;17.92;;
84608;SDS011;74839;51.214;22.574;2024-03-23T09:31:16;26.25;;;16.58;;
84608;SDS011;74839;51.214;22.574;2024-03-23T09:33:43;28.50;;;17.30;;
84608;SDS011;74839;51.214;22.574;2024-03-23T09:36:09;25.98;;;16.73;;
84608;SDS011;74839;51.214;22.574;2024-03-23T09:38:35;29.75;;;18.33;;
84608;SDS011;74839;51.214;22.574;2024-03-23T09:41:06;24.83;;;15.85;;
84608;SDS011;74839;51.214;22.574;2024-03-23T09:43:32;26.73;;;16.50;;
84608;SDS011;74839;51.214;22.574;2024-03-23T09:45:58;28.10;;;16.48;;
84608;SDS011;74839;51.214;22.574;2024-03-23T09:48:24;28.55;;;16.92;;
84608;SDS011;74839;51.214;22.574;2024-03-23T09:50:51;20.40;;;13.45;;
84608;SDS011;74839;51.214;22.574;2024-03-23T09:53:17;26.20;;;15.93;;
84608;SDS011;74839;51.214;22.574;2024-03-23T09:55:43;34.97;;;20.60;;
84608;SDS011;74839;51.214;22.574;2024-03-23T09:58:13;26.83;;;16.13;;
84608;SDS011;74839;51.214;22.574;2024-03-23T10:00:40;27.35;;;17.35;;
84608;SDS011;74839;51.214;22.574;2024-03-23T10:03:06;31.67;;;17.23;;
84608;SDS011;74839;51.214;22.574;2024-03-23T10:05:32;27.70;;;16.92;;
84608;SDS011;74839;51.214;22.574;2024-03-23T10:08:17;28.63;;;17.88;;
84608;SDS011;74839;51.214;22.574;2024-03-23T10:10:43;23.63;;;16.25;;
84608;SDS011;74839;51.214;22.574;2024-03-23T10:13:10;30.88;;;18.02;;
84608;SDS011;74839;51.214;22.574;2024-03-23T10:15:38;29.88;;;18.10;;
84608;SDS011;74839;51.214;22.574;2024-03-23T10:21:06;26.10;;;17.55;;
84608;SDS011;74839;51.214;22.574;2024-03-23T10:23:39;28.23;;;16.88;;
84608;SDS011;74839;51.214;22.574;2024-03-23T10:28:57;27.88;;;15.90;;
84608;SDS011;74839;51.214;22.574;2024-03-23T10:31:26;25.10;;;15.35;;
84608;SDS011;74839;51.214;22.574;2024-03-23T10:33:52;24.70;;;15.70;;
84608;SDS011;74839;51.214;22.574;2024-03-23T10:36:21;26.02;;;15.98;;
84608;SDS011;74839;51.214;22.574;2024-03-23T10:38:49;25.35;;;15.55;;
84608;SDS011;74839;51.214;22.574;2024-03-23T10:41:15;23.60;;;14.32;;
84608;SDS011;74839;51.214;22.574;2024-03-23T10:43:41;25.45;;;15.45;;
84608;SDS011;74839;51.214;22.574;2024-03-23T10:46:08;26.25;;;14.52;;
84608;SDS011;74839;51.214;22.574;2024-03-23T10:48:34;21.67;;;14.15;;
84608;SDS011;74839;51.214;22.574;2024-03-23T10:51:00;24.23;;;14.95;;
84608;SDS011;74839;51.214;22.574;2024-03-23T10:53:27;17.42;;;13.20;;
84608;SDS011;74839;51.214;22.574;2024-03-23T10:55:55;20.63;;;13.43;;
84608;SDS011;74839;51.214;22.574;2024-03-23T10:58:23;21.77;;;13.98;;
84608;SDS011;74839;51.214;22.574;2024-03-23T11:00:50;22.25;;;13.73;;
84608;SDS011;74839;51.214;22.574;2024-03-23T11:03:35;21.38;;;13.40;;
84608;SDS011;74839;51.214;22.574;2024-03-23T11:06:02;20.92;;;13.02;;
84608;SDS011;74839;51.214;22.574;2024-03-23T11:08:38;18.05;;;12.98;;
84608;SDS011;74839;51.214;22.574;2024-03-23T11:11:17;22.73;;;13.27;;
84608;SDS011;74839;51.214;22.574;2024-03-23T11:13:44;23.42;;;14.43;;
84608;SDS011;74839;51.214;22.574;2024-03-23T11:16:14;21.27;;;12.52;;
84608;SDS011;74839;51.214;22.574;2024-03-23T11:18:41;19.63;;;13.68;;
84608;SDS011;74839;51.214;22.574;2024-03-23T11:21:07;17.92;;;11.95;;
84608;SDS011;74839;51.214;22.574;2024-03-23T11:23:33;19.52;;;13.95;;
84608;SDS011;74839;51.214;22.574;2024-03-23T11:25:59;19.38;;;13.02;;
84608;SDS011;74839;51.214;22.574;2024-03-23T11:28:26;17.05;;;12.40;;
84608;SDS011;74839;51.214;22.574;2024-03-23T11:30:52;18.85;;;12.25;;
84608;SDS011;74839;51.214;22.574;2024-03-23T11:33:18;16.40;;;11.93;;
84608;SDS011;74839;51.214;22.574;2024-03-23T11:35:44;17.88;;;12.00;;
84608;SDS011;74839;51.214;22.574;2024-03-23T11:38:14;17.35;;;11.52;;
84608;SDS011;74839;51.214;22.574;2024-03-23T11:43:10;17.45;;;12.45;;
84608;SDS011;74839;51.214;22.574;2024-03-23T11:45:37;16.48;;;11.80;;
84608;SDS011;74839;51.214;22.574;2024-03-23T11:48:04;17.23;;;11.68;;
84608;SDS011;74839;51.214;22.574;2024-03-23T11:50:31;17.98;;;12.13;;
84608;SDS011;74839;51.214;22.574;2024-03-23T11:55:39;17.05;;;12.50;;
84608;SDS011;74839;51.214;22.574;2024-03-23T11:58:05;15.45;;;11.18;;
84608;SDS011;74839;51.214;22.574;2024-03-23T12:00:33;17.92;;;11.13;;
84608;SDS011;74839;51.214;22.574;2024-03-23T12:03:02;16.20;;;11.13;;
84608;SDS011;74839;51.214;22.574;2024-03-23T12:05:28;17.20;;;11.65;;
84608;SDS011;74839;51.214;22.574;2024-03-23T12:07:54;17.23;;;12.32;;
84608;SDS011;74839;51.214;22.574;2024-03-23T12:10:20;16.38;;;11.48;;
84608;SDS011;74839;51.214;22.574;2024-03-23T12:12:58;16.10;;;11.15;;
84608;SDS011;74839;51.214;22.574;2024-03-23T12:15:24;18.13;;;10.65;;
84608;SDS011;74839;51.214;22.574;2024-03-23T12:17:50;16.45;;;11.25;;
84608;SDS011;74839;51.214;22.574;2024-03-23T12:20:16;20.02;;;12.27;;
84608;SDS011;74839;51.214;22.574;2024-03-23T12:22:42;18.17;;;11.57;;
84608;SDS011;74839;51.214;22.574;2024-03-23T12:25:10;20.35;;;12.35;;
84608;SDS011;74839;51.214;22.574;2024-03-23T12:27:36;15.38;;;10.82;;
84608;SDS011;74839;51.214;22.574;2024-03-23T12:30:02;13.38;;;10.57;;
84608;SDS011;74839;51.214;22.574;2024-03-23T12:32:29;15.85;;;10.93;;
84608;SDS011;74839;51.214;22.574;2024-03-23T12:34:55;18.20;;;12.38;;
84608;SDS011;74839;51.214;22.574;2024-03-23T12:37:21;14.07;;;10.48;;
84608;SDS011;74839;51.214;22.574;2024-03-23T12:39:47;14.95;;;10.73;;
84608;SDS011;74839;51.214;22.574;2024-03-23T12:42:13;15.43;;;11.05;;
84608;SDS011;74839;51.214;22.574;2024-03-23T12:44:40;17.77;;;10.43;;
84608;SDS011;74839;51.214;22.574;2024-03-23T12:47:06;17.70;;;11.27;;
84608;SDS011;74839;51.214;22.574;2024-03-23T12:49:32;18.10;;;11.63;;
84608;SDS011;74839;51.214;22.574;2024-03-23T12:51:58;17.17;;;10.90;;
84608;SDS011;74839;51.214;22.574;2024-03-23T12:54:25;14.10;;;10.55;;
84608;SDS011;74839;51.214;22.574;2024-03-23T12:56:51;13.60;;;9.55;;
84608;SDS011;74839;51.214;22.574;2024-03-23T12:59:17;14.88;;;10.70;;
84608;SDS011;74839;51.214;22.574;2024-03-23T13:01:43;15.07;;;10.05;;
84608;SDS011;74839;51.214;22.574;2024-03-23T13:04:09;15.00;;;10.32;;
84608;SDS011;74839;51.214;22.574;2024-03-23T13:06:36;14.90;;;11.55;;
84608;SDS011;74839;51.214;22.574;2024-03-23T13:09:02;14.95;;;10.55;;
84608;SDS011;74839;51.214;22.574;2024-03-23T13:11:28;13.27;;;9.95;;
84608;SDS011;74839;51.214;22.574;2024-03-23T13:13:54;14.18;;;10.00;;
84608;SDS011;74839;51.214;22.574;2024-03-23T13:16:20;12.95;;;10.05;;
84608;SDS011;74839;51.214;22.574;2024-03-23T13:18:46;12.65;;;9.70;;
84608;SDS011;74839;51.214;22.574;2024-03-23T13:21:12;12.73;;;9.77;;
84608;SDS011;74839;51.214;22.574;2024-03-23T13:23:38;14.20;;;9.32;;
84608;SDS011;74839;51.214;22.574;2024-03-23T13:26:07;12.88;;;9.60;;
84608;SDS011;74839;51.214;22.574;2024-03-23T13:28:33;12.07;;;8.75;;
84608;SDS011;74839;51.214;22.574;2024-03-23T13:31:01;11.70;;;9.30;;
84608;SDS011;74839;51.214;22.574;2024-03-23T13:33:30;11.27;;;8.10;;
84608;SDS011;74839;51.214;22.574;2024-03-23T13:35:59;10.85;;;8.10;;
84608;SDS011;74839;51.214;22.574;2024-03-23T13:38:25;12.65;;;8.07;;
84608;SDS011;74839;51.214;22.574;2024-03-23T13:40:55;11.65;;;8.70;;
84608;SDS011;74839;51.214;22.574;2024-03-23T13:43:22;10.68;;;8.45;;
84608;SDS011;74839;51.214;22.574;2024-03-23T13:45:48;14.25;;;7.93;;
84608;SDS011;74839;51.214;22.574;2024-03-23T13:48:15;13.27;;;8.55;;
84608;SDS011;74839;51.214;22.574;2024-03-23T13:50:41;9.98;;;8.30;;
84608;SDS011;74839;51.214;22.574;2024-03-23T13:53:07;11.98;;;8.93;;
84608;SDS011;74839;51.214;22.574;2024-03-23T13:55:34;14.23;;;8.60;;
84608;SDS011;74839;51.214;22.574;2024-03-23T13:58:00;12.30;;;8.48;;
84608;SDS011;74839;51.214;22.574;2024-03-23T14:00:26;12.02;;;8.65;;
84608;SDS011;74839;51.214;22.574;2024-03-23T14:02:52;15.73;;;9.27;;
84608;SDS011;74839;51.214;22.574;2024-03-23T14:05:18;11.20;;;8.27;;
84608;SDS011;74839;51.214;22.574;2024-03-23T14:07:44;17.17;;;11.73;;
84608;SDS011;74839;51.214;22.574;2024-03-23T14:10:10;11.02;;;8.30;;
84608;SDS011;74839;51.214;22.574;2024-03-23T14:12:37;10.18;;;7.88;;
84608;SDS011;74839;51.214;22.574;2024-03-23T14:15:06;10.38;;;8.10;;
84608;SDS011;74839;51.214;22.574;2024-03-23T14:17:32;14.70;;;9.30;;
84608;SDS011;74839;51.214;22.574;2024-03-23T14:19:58;12.38;;;9.77;;
84608;SDS011;74839;51.214;22.574;2024-03-23T14:22:30;14.77;;;11.40;;
84608;SDS011;74839;51.214;22.574;2024-03-23T14:24:57;16.25;;;11.95;;
84608;SDS011;74839;51.214;22.574;2024-03-23T14:27:24;14.02;;;10.30;;
84608;SDS011;74839;51.214;22.574;2024-03-23T14:29:50;14.85;;;8.55;;
84608;SDS011;74839;51.214;22.574;2024-03-23T14:32:16;10.80;;;9.02;;
84608;SDS011;74839;51.214;22.574;2024-03-23T14:34:42;14.02;;;11.02;;
84608;SDS011;74839;51.214;22.574;2024-03-23T14:37:09;18.85;;;13.18;;
84608;SDS011;74839;51.214;22.574;2024-03-23T14:39:35;19.63;;;12.68;;
84608;SDS011;74839;51.214;22.574;2024-03-23T14:42:04;15.02;;;11.00;;
84608;SDS011;74839;51.214;22.574;2024-03-23T14:44:33;14.40;;;10.05;;
84608;SDS011;74839;51.214;22.574;2024-03-23T14:46:59;19.13;;;12.10;;
84608;SDS011;74839;51.214;22.574;2024-03-23T14:49:25;13.70;;;9.77;;
84608;SDS011;74839;51.214;22.574;2024-03-23T14:51:51;17.35;;;11.95;;
84608;SDS011;74839;51.214;22.574;2024-03-23T14:54:17;18.15;;;12.65;;
84608;SDS011;74839;51.214;22.574;2024-03-23T14:56:43;23.08;;;12.02;;
84608;SDS011;74839;51.214;22.574;2024-03-23T14:59:09;12.75;;;9.63;;
84608;SDS011;74839;51.214;22.574;2024-03-23T15:01:35;18.17;;;11.15;;
84608;SDS011;74839;51.214;22.574;2024-03-23T15:04:01;20.88;;;12.63;;
84608;SDS011;74839;51.214;22.574;2024-03-23T15:06:28;17.67;;;12.05;;
84608;SDS011;74839;51.214;22.574;2024-03-23T15:08:54;15.70;;;10.57;;
84608;SDS011;74839;51.214;22.574;2024-03-23T15:11:21;17.58;;;11.23;;
84608;SDS011;74839;51.214;22.574;2024-03-23T15:13:49;13.93;;;10.32;;
84608;SDS011;74839;51.214;22.574;2024-03-23T15:16:18;14.32;;;9.48;;